Time;durP1;ratioP1;P1;durP2;ratioP2;P2;SDS_P1;SDS_P2;PMS_P1;PMS_P2;Temp;Humidity;BMP_temperature;BMP_pressure;BME280_temperature;BME280_humidity;BME280_pressure;Samples;Min_cycle;Max_cycle;Signal;HPM_P1;HPM_P2
2022/01/10 00:00:38;;;;;;;31.50;16.82;;;;;;;2.57;66.51;99736.31;1645568;83;21676;-67
2022/01/10 00:03:05;;;;;;;24.85;14.47;;;;;;;2.57;66.67;99733.72;1706561;81;21639;-67
2022/01/10 00:05:31;;;;;;;23.92;14.65;;;;;;;2.58;66.66;99728.05;1716475;81;21129;-67
2022/01/10 00:07:58;;;;;;;20.10;12.50;;;;;;;2.58;66.75;99737.14;1671338;83;21120;-67
2022/01/10 00:10:24;;;;;;;21.27;13.62;;;;;;;2.65;66.70;99738.92;1693043;82;21141;-67
2022/01/10 00:12:52;;;;;;;24.45;12.82;;;;;;;2.75;66.36;99733.56;1710718;81;21655;-67
2022/01/10 00:15:19;;;;;;;23.80;13.90;;;;;;;2.82;66.16;99739.25;1707324;81;21049;-67
2022/01/10 00:17:45;;;;;;;27.25;14.23;;;;;;;2.83;65.98;99738.33;1712638;81;21580;-67
2022/01/10 00:20:15;;;;;;;24.02;15.03;;;;;;;2.79;66.03;99754.09;1685809;83;21107;-67
2022/01/10 00:22:49;;;;;;;22.05;13.70;;;;;;;2.73;66.11;99750.54;1703626;82;21150;-67
2022/01/10 00:25:20;;;;;;;23.32;13.60;;;;;;;2.68;66.26;99749.97;1677669;82;21069;-68
2022/01/10 00:27:51;;;;;;;24.87;13.90;;;;;;;2.64;66.22;99757.58;1666287;83;21085;-69
2022/01/10 00:30:17;;;;;;;26.77;14.55;;;;;;;2.56;66.24;99759.77;1690416;82;21134;-67
2022/01/10 00:32:44;;;;;;;24.50;15.63;;;;;;;2.50;66.27;99761.41;1698765;82;21079;-67
2022/01/10 00:35:11;;;;;;;27.70;16.12;;;;;;;2.45;66.31;99765.55;1697052;82;21135;-68
2022/01/10 00:37:39;;;;;;;26.95;15.85;;;;;;;2.42;66.37;99761.83;1675751;83;21140;-67
2022/01/10 00:40:07;;;;;;;22.35;14.30;;;;;;;2.39;66.44;99760.73;1694971;82;21067;-67
2022/01/10 00:42:34;;;;;;;23.35;13.88;;;;;;;2.38;66.48;99763.77;1675732;82;21084;-67
2022/01/10 00:45:03;;;;;;;24.87;14.70;;;;;;;2.35;66.60;99770.42;1695092;82;21077;-68
2022/01/10 00:47:29;;;;;;;22.00;13.43;;;;;;;2.34;66.56;99779.63;1701614;82;21167;-68
2022/01/10 00:49:56;;;;;;;24.98;13.53;;;;;;;2.30;66.76;99778.09;1688257;83;21123;-68
2022/01/10 00:52:22;;;;;;;25.00;14.47;;;;;;;2.29;66.81;99775.15;1694623;82;21125;-69
2022/01/10 00:54:48;;;;;;;24.47;13.70;;;;;;;2.26;66.91;99780.50;1697866;82;21047;-68
2022/01/10 00:57:15;;;;;;;24.45;13.22;;;;;;;2.26;66.85;99782.63;1682807;82;21151;-68
2022/01/10 00:59:41;;;;;;;23.45;12.88;;;;;;;2.30;66.77;99772.44;1698922;82;21093;-68
2022/01/10 01:02:07;;;;;;;20.72;12.25;;;;;;;2.37;66.85;99780.72;1700481;82;21085;-68
2022/01/10 01:04:34;;;;;;;21.75;12.80;;;;;;;2.38;66.83;99777.22;1683619;83;21074;-65
2022/01/10 01:07:00;;;;;;;24.55;12.88;;;;;;;2.34;67.02;99779.63;1688073;82;21069;-65
2022/01/10 01:09:29;;;;;;;20.02;12.58;;;;;;;2.32;67.13;99783.59;1691280;83;21713;-64
2022/01/10 01:14:50;;;;;;;21.73;13.22;;;;;;;2.28;67.26;99787.27;1692569;82;21145;-66
2022/01/10 01:17:09;;;;;;;24.77;13.38;;;;;;;2.20;67.20;99789.45;1671452;82;21159;-66
2022/01/10 01:20:04;;;;;;;24.43;13.25;;;;;;;2.14;67.29;99794.99;1681721;82;21163;-65
2022/01/10 01:24:45;;;;;;;20.35;12.30;;;;;;;2.06;67.55;99790.67;1691831;82;21838;-68
2022/01/10 01:27:12;;;;;;;24.30;13.18;;;;;;;2.00;67.88;99787.93;1686974;82;21046;-63
2022/01/10 01:29:38;;;;;;;22.55;12.20;;;;;;;1.97;67.98;99790.25;1678844;83;21137;-63
2022/01/10 01:32:05;;;;;;;20.35;12.40;;;;;;;1.99;68.06;99797.48;1711116;81;21091;-66
2022/01/10 01:34:32;;;;;;;22.98;13.43;;;;;;;1.97;68.10;99794.14;1697166;81;21093;-66
2022/01/10 01:36:58;;;;;;;22.77;12.63;;;;;;;1.95;68.09;99788.20;1723388;81;21026;-66
2022/01/10 01:39:25;;;;;;;20.88;11.50;;;;;;;1.89;68.20;99789.81;1706991;81;21349;-65
2022/01/10 01:42:01;;;;;;;20.32;12.23;;;;;;;1.90;68.29;99801.03;1710804;81;21108;-65
2022/01/10 01:44:26;;;;;;;20.12;12.05;;;;;;;1.94;68.17;99807.27;1710054;81;21110;-65
2022/01/10 01:46:52;;;;;;;17.80;12.05;;;;;;;1.94;68.16;99796.89;1706592;81;21129;-65
2022/01/10 01:49:18;;;;;;;19.90;11.68;;;;;;;1.90;68.58;99791.51;1705746;81;22116;-65
2022/01/10 01:51:45;;;;;;;21.42;11.68;;;;;;;1.90;68.74;99803.19;1677145;83;21584;-65
2022/01/10 01:54:12;;;;;;;20.60;12.15;;;;;;;1.87;68.62;99803.34;1682587;83;21168;-65
2022/01/10 01:56:39;;;;;;;19.27;12.33;;;;;;;1.82;68.63;99806.64;1703530;81;21594;-65
2022/01/10 01:59:07;;;;;;;23.73;11.15;;;;;;;1.76;68.78;99818.16;1678841;83;21065;-65
2022/01/10 02:01:35;;;;;;;19.87;11.83;;;;;;;1.76;68.75;99821.22;1664259;83;21120;-65
2022/01/10 02:04:02;;;;;;;19.23;11.05;;;;;;;1.71;68.79;99816.27;1678396;83;21111;-65
2022/01/10 02:06:29;;;;;;;20.43;11.10;;;;;;;1.70;68.93;99817.64;1689624;83;21628;-65
2022/01/10 02:09:01;;;;;;;21.07;10.23;;;;;;;1.79;68.79;99818.47;1693273;82;21081;-65
2022/01/10 02:11:26;;;;;;;17.85;9.55;;;;;;;1.85;68.48;99820.75;1693787;82;21061;-63
2022/01/10 02:13:53;;;;;;;17.67;8.95;;;;;;;1.88;68.49;99824.92;1691012;82;21817;-63
2022/01/10 02:16:40;;;;;;;16.45;10.23;;;;;;;1.89;68.49;99827.44;1709018;82;21084;-64
2022/01/10 02:19:03;;;;;;;14.20;8.20;;;;;;;1.85;68.41;99828.53;1673801;84;21417;-65
2022/01/10 02:21:29;;;;;;;12.90;7.50;;;;;;;1.80;68.10;99831.80;1674053;83;21126;-66
2022/01/10 02:23:57;;;;;;;11.53;6.80;;;;;;;1.66;67.99;99828.20;1672877;82;21097;-66
2022/01/10 02:26:26;;;;;;;11.73;7.55;;;;;;;1.62;68.05;99831.86;1669511;83;21311;-64
2022/01/10 02:28:52;;;;;;;13.85;6.45;;;;;;;1.60;67.98;99826.38;1689834;82;21694;-63
2022/01/10 02:31:19;;;;;;;13.43;8.03;;;;;;;1.60;67.83;99824.62;1692032;82;21106;-64
2022/01/10 02:33:47;;;;;;;11.38;6.20;;;;;;;1.58;67.95;99826.89;1694271;82;21101;-64
2022/01/10 02:36:24;;;;;;;12.60;7.12;;;;;;;1.62;68.02;99827.97;1689358;83;21431;-64
2022/01/10 02:38:52;;;;;;;14.47;6.72;;;;;;;1.64;67.94;99829.19;1688259;82;21158;-64
2022/01/10 02:41:30;;;;;;;13.75;7.25;;;;;;;1.62;67.87;99837.51;1685094;83;21044;-64
2022/01/10 02:43:58;;;;;;;14.60;7.45;;;;;;;1.62;68.04;99842.70;1688346;83;21075;-64
2022/01/10 02:46:25;;;;;;;13.88;7.50;;;;;;;1.61;67.91;99850.91;1713630;81;21101;-64
2022/01/10 02:48:52;;;;;;;13.65;7.37;;;;;;;1.51;67.96;99851.01;1712359;81;21157;-64
2022/01/10 02:51:19;;;;;;;13.75;7.58;;;;;;;1.47;68.18;99852.09;1708245;82;21099;-64
2022/01/10 02:53:46;;;;;;;11.57;7.20;;;;;;;1.44;68.40;99854.84;1705097;81;21164;-64
2022/01/10 02:56:13;;;;;;;13.25;7.22;;;;;;;1.47;68.43;99861.17;1696557;82;21584;-64
2022/01/10 02:58:42;;;;;;;10.72;6.47;;;;;;;1.48;68.44;99864.16;1691539;82;21085;-64
2022/01/10 03:01:11;;;;;;;12.37;6.37;;;;;;;1.55;68.42;99871.16;1672665;84;21090;-64
2022/01/10 03:03:41;;;;;;;12.35;7.00;;;;;;;1.55;68.21;99871.99;1691053;82;21250;-64
2022/01/10 03:06:08;;;;;;;8.65;5.47;;;;;;;1.59;68.08;99867.48;1670889;81;21122;-64
2022/01/10 03:08:35;;;;;;;9.45;5.53;;;;;;;1.61;67.91;99872.95;1674710;83;21096;-64
2022/01/10 03:11:04;;;;;;;11.10;5.40;;;;;;;1.64;67.58;99878.46;1679999;83;21073;-64
2022/01/10 03:13:32;;;;;;;10.60;6.03;;;;;;;1.61;67.44;99882.50;1688588;82;21134;-64
2022/01/10 03:15:59;;;;;;;9.55;4.45;;;;;;;1.55;66.62;99875.88;1696766;82;21260;-64
2022/01/10 03:18:25;;;;;;;9.70;4.80;;;;;;;1.42;66.52;99878.25;1700499;82;21135;-64
2022/01/10 03:20:52;;;;;;;10.10;4.75;;;;;;;1.34;66.80;99886.86;1663650;82;21089;-64
2022/01/10 03:23:18;;;;;;;11.60;5.08;;;;;;;1.26;67.05;99881.22;1664206;83;21127;-64
2022/01/10 03:25:46;;;;;;;9.03;4.87;;;;;;;1.22;67.34;99888.77;1694279;82;21138;-64
2022/01/10 03:28:14;;;;;;;9.50;4.83;;;;;;;1.18;67.27;99890.68;1695641;82;23387;-65
2022/01/10 03:30:41;;;;;;;8.33;4.85;;;;;;;1.16;67.15;99891.22;1700521;82;21511;-65
2022/01/10 03:33:08;;;;;;;10.55;5.78;;;;;;;1.12;67.37;99889.67;1692981;82;21086;-65
2022/01/10 03:35:36;;;;;;;8.38;4.80;;;;;;;1.17;67.33;99901.13;1686712;82;21173;-65
2022/01/10 03:38:07;;;;;;;8.00;4.25;;;;;;;1.13;67.43;99906.91;1695140;82;21172;-65
2022/01/10 03:40:39;;;;;;;8.70;4.75;;;;;;;1.16;67.48;99907.20;1682153;82;21582;-67
2022/01/10 03:43:07;;;;;;;9.18;5.28;;;;;;;1.17;67.57;99911.48;1671089;83;21102;-66
2022/01/10 03:45:34;;;;;;;9.53;5.05;;;;;;;1.22;67.47;99916.81;1681640;82;21085;-67
2022/01/10 03:48:00;;;;;;;11.60;5.35;;;;;;;1.21;67.45;99909.97;1700765;82;21165;-66
2022/01/10 03:50:27;;;;;;;11.12;5.15;;;;;;;1.24;67.24;99921.46;1686047;82;21089;-67
2022/01/10 03:52:55;;;;;;;10.82;5.80;;;;;;;1.19;67.27;99919.55;1701498;82;21144;-65
2022/01/10 03:55:21;;;;;;;10.95;5.97;;;;;;;1.18;67.33;99929.55;1681010;82;21049;-65
2022/01/10 03:57:48;;;;;;;9.68;5.25;;;;;;;1.14;67.55;99928.47;1690401;82;21077;-65
2022/01/10 04:00:15;;;;;;;10.30;5.37;;;;;;;1.11;67.58;99933.37;1671904;84;21136;-66
2022/01/10 04:02:52;;;;;;;10.70;5.62;;;;;;;1.08;67.69;99932.21;1691194;82;21078;-65
2022/01/10 04:05:14;;;;;;;11.40;6.50;;;;;;;1.10;67.62;99935.09;1697283;82;21786;-66
2022/01/10 04:07:41;;;;;;;11.93;6.58;;;;;;;1.07;67.70;99937.00;1697711;82;21081;-70
2022/01/10 04:10:08;;;;;;;12.78;6.50;;;;;;;1.02;67.88;99935.08;1664740;82;21114;-69
2022/01/10 04:12:36;;;;;;;11.25;6.62;;;;;;;1.02;67.97;99941.09;1703662;82;21151;-71
2022/01/10 04:15:03;;;;;;;10.78;5.83;;;;;;;1.01;68.06;99942.46;1682638;83;21095;-68
2022/01/10 04:17:30;;;;;;;12.35;6.33;;;;;;;1.04;68.14;99944.91;1678894;83;21115;-67
2022/01/10 04:19:57;;;;;;;12.05;6.25;;;;;;;1.17;68.06;99943.88;1682502;83;21682;-72
2022/01/10 04:22:24;;;;;;;11.63;6.40;;;;;;;1.28;67.94;99948.92;1704603;81;21649;-68
2022/01/10 04:24:51;;;;;;;13.40;7.10;;;;;;;1.33;67.85;99950.44;1701798;81;21168;-66
2022/01/10 04:27:18;;;;;;;12.75;7.20;;;;;;;1.35;67.68;99949.47;1688093;82;21562;-71
2022/01/10 04:29:44;;;;;;;11.30;6.92;;;;;;;1.38;67.47;99956.24;1687574;82;21090;-72
2022/01/10 04:32:12;;;;;;;11.60;6.35;;;;;;;1.39;67.35;99953.58;1710240;81;21041;-70
2022/01/10 04:34:40;;;;;;;12.15;6.83;;;;;;;1.42;67.21;99961.67;1699518;82;21148;-73
2022/01/10 04:37:07;;;;;;;12.58;7.47;;;;;;;1.43;67.18;99960.74;1699769;82;21672;-64
2022/01/10 04:39:34;;;;;;;14.98;7.25;;;;;;;1.48;67.07;99963.52;1697302;82;21093;-64
2022/01/10 04:42:00;;;;;;;11.93;7.45;;;;;;;1.49;66.93;99966.47;1696766;82;23308;-63
2022/01/10 04:44:27;;;;;;;12.98;6.97;;;;;;;1.49;66.77;99970.36;1704287;82;21149;-60
2022/01/10 04:46:53;;;;;;;11.70;6.87;;;;;;;1.44;66.53;99975.40;1700259;82;21541;-60
2022/01/10 04:49:24;;;;;;;12.85;6.65;;;;;;;1.39;66.56;99979.97;1694612;82;21283;-68
2022/01/10 04:51:50;;;;;;;12.15;7.08;;;;;;;1.35;66.82;99984.47;1702403;82;21657;-70
2022/01/10 04:54:18;;;;;;;12.20;7.00;;;;;;;1.36;66.98;99984.86;1697175;82;21218;-69
2022/01/10 04:56:44;;;;;;;11.40;6.58;;;;;;;1.41;67.04;99983.31;1696916;82;21101;-68
2022/01/10 04:59:11;;;;;;;13.20;8.08;;;;;;;1.46;66.95;99991.71;1696745;82;21134;-68
2022/01/10 05:01:38;;;;;;;15.23;7.03;;;;;;;1.52;66.89;99986.70;1674739;82;21149;-69
2022/01/10 05:04:06;;;;;;;12.07;6.58;;;;;;;1.58;66.62;99994.16;1704865;82;21046;-69
2022/01/10 05:06:34;;;;;;;12.30;7.12;;;;;;;1.54;66.37;99996.08;1700483;82;21124;-68
2022/01/10 05:09:01;;;;;;;13.53;7.12;;;;;;;1.49;66.16;99998.88;1698939;82;21058;-69
2022/01/10 05:11:36;;;;;;;12.43;6.78;;;;;;;1.43;66.60;100000.50;1695251;82;21105;-68
2022/01/10 05:14:03;;;;;;;10.45;6.42;;;;;;;1.51;66.86;100002.70;1693297;82;21108;-71
2022/01/10 05:16:31;;;;;;;12.28;7.00;;;;;;;1.54;66.83;100005.15;1677524;82;21113;-69
2022/01/10 05:18:59;;;;;;;13.90;6.85;;;;;;;1.62;66.62;100013.39;1699088;82;21117;-68
2022/01/10 05:21:26;;;;;;;10.85;6.37;;;;;;;1.64;66.50;100019.81;1702192;82;21059;-72
2022/01/10 05:23:53;;;;;;;11.25;6.87;;;;;;;1.66;66.39;100016.23;1707509;81;21085;-69
2022/01/10 05:26:19;;;;;;;11.08;6.15;;;;;;;1.67;66.35;100024.38;1707999;82;21061;-69
2022/01/10 05:28:46;;;;;;;19.87;8.60;;;;;;;1.71;66.28;100025.53;1706725;81;21145;-69
2022/01/10 05:31:13;;;;;;;14.73;8.70;;;;;;;1.70;66.28;100027.73;1681608;83;21082;-68
2022/01/10 05:33:41;;;;;;;13.58;7.58;;;;;;;1.73;66.19;100024.56;1706390;81;21136;-68
2022/01/10 05:36:08;;;;;;;14.05;8.03;;;;;;;1.73;66.14;100028.89;1697849;82;21102;-69
2022/01/10 05:38:35;;;;;;;13.60;8.30;;;;;;;1.78;65.94;100029.50;1685885;82;21134;-72
2022/01/10 05:41:02;;;;;;;14.45;7.50;;;;;;;1.74;65.86;100032.70;1679483;83;21017;-70
2022/01/10 05:43:28;;;;;;;12.25;7.35;;;;;;;1.76;65.80;100037.83;1707068;81;21153;-69
2022/01/10 05:45:55;;;;;;;10.90;6.25;;;;;;;1.71;65.77;100041.93;1689580;83;21111;-71
2022/01/10 05:48:25;;;;;;;11.53;6.45;;;;;;;1.69;65.54;100046.36;1697269;82;21665;-70
2022/01/10 05:50:52;;;;;;;12.18;6.50;;;;;;;1.60;65.59;100052.84;1672197;83;21122;-71
2022/01/10 05:53:19;;;;;;;11.00;6.28;;;;;;;1.55;65.81;100056.11;1698190;82;21125;-72
2022/01/10 05:55:45;;;;;;;11.83;7.03;;;;;;;1.53;65.85;100064.86;1697970;81;21106;-68
2022/01/10 05:58:12;;;;;;;13.43;6.60;;;;;;;1.52;65.87;100074.87;1671020;82;21047;-70
2022/01/10 06:00:39;;;;;;;10.30;5.85;;;;;;;1.52;65.87;100076.17;1686266;82;21086;-71
2022/01/10 06:03:06;;;;;;;13.45;6.40;;;;;;;1.48;65.63;100081.49;1665170;83;21391;-66
2022/01/10 06:05:34;;;;;;;12.90;6.60;;;;;;;1.41;65.67;100085.73;1677156;83;21074;-59
2022/01/10 06:08:05;;;;;;;11.68;5.78;;;;;;;1.38;65.68;100085.44;1670243;83;21135;-59
2022/01/10 06:10:32;;;;;;;11.50;6.15;;;;;;;1.33;65.91;100089.13;1672033;83;21081;-65
2022/01/10 06:13:00;;;;;;;12.05;6.83;;;;;;;1.34;65.91;100093.41;1661237;83;21060;-67
2022/01/10 06:15:28;;;;;;;15.05;7.78;;;;;;;1.35;66.05;100100.30;1681838;83;21179;-65
2022/01/10 06:17:54;;;;;;;12.10;6.40;;;;;;;1.41;66.11;100100.84;1712482;81;21045;-67
2022/01/10 06:20:21;;;;;;;11.50;5.95;;;;;;;1.49;66.08;100104.36;1683790;83;21221;-64
2022/01/10 06:22:47;;;;;;;11.38;6.42;;;;;;;1.58;65.82;100103.08;1687687;83;21082;-65
2022/01/10 06:25:17;;;;;;;11.38;6.80;;;;;;;1.63;65.70;100108.45;1699896;81;21103;-65
2022/01/10 06:27:44;;;;;;;11.33;6.30;;;;;;;1.70;65.51;100116.79;1674180;83;21137;-65
2022/01/10 06:30:11;;;;;;;10.63;6.03;;;;;;;1.75;65.32;100108.33;1684043;81;21097;-66
2022/01/10 06:32:39;;;;;;;10.72;5.92;;;;;;;1.79;65.12;100107.72;1667211;83;21295;-66
2022/01/10 06:35:08;;;;;;;11.00;7.15;;;;;;;1.80;64.93;100114.57;1684056;83;21134;-66
2022/01/10 06:37:35;;;;;;;11.95;6.55;;;;;;;1.80;64.80;100118.46;1707866;81;21357;-66
2022/01/10 06:40:03;;;;;;;17.25;7.75;;;;;;;1.81;64.98;100124.05;1665031;84;21519;-67
2022/01/10 06:42:31;;;;;;;14.85;7.78;;;;;;;1.85;64.93;100118.64;1693898;82;21124;-67
2022/01/10 06:44:58;;;;;;;12.33;6.95;;;;;;;1.87;64.83;100122.47;1705155;81;22333;-66
2022/01/10 06:47:24;;;;;;;12.45;7.15;;;;;;;1.90;64.79;100121.03;1680604;83;20995;-65
2022/01/10 06:49:51;;;;;;;11.97;7.40;;;;;;;1.89;64.72;100127.12;1709057;81;21156;-64
2022/01/10 06:52:18;;;;;;;14.75;7.87;;;;;;;1.91;64.65;100125.28;1654476;83;21539;-67
2022/01/10 06:54:45;;;;;;;15.05;8.05;;;;;;;1.86;64.70;100143.66;1678799;83;21132;-67
2022/01/10 06:57:11;;;;;;;14.35;7.70;;;;;;;1.84;64.72;100144.66;1692584;82;21561;-66
2022/01/10 06:59:38;;;;;;;15.50;7.22;;;;;;;1.78;64.91;100149.70;1712102;81;21080;-59
2022/01/10 07:02:05;;;;;;;17.87;9.28;;;;;;;1.75;64.95;100147.24;1708968;81;21216;-58
2022/01/10 07:04:32;;;;;;;12.95;7.55;;;;;;;1.71;65.25;100146.98;1670420;82;21133;-61
2022/01/10 07:07:02;;;;;;;13.08;8.68;;;;;;;1.74;65.23;100149.44;1689549;82;21090;-74
2022/01/10 07:09:31;;;;;;;14.47;7.90;;;;;;;1.70;65.37;100149.22;1684467;83;21110;-77
2022/01/10 07:11:59;;;;;;;16.48;9.75;;;;;;;1.72;65.50;100153.03;1683879;83;21123;-75
2022/01/10 07:14:28;;;;;;;16.27;8.93;;;;;;;1.69;65.51;100155.77;1711223;81;22373;-64
2022/01/10 07:16:55;;;;;;;18.12;9.65;;;;;;;1.67;65.38;100161.86;1650499;83;21172;-78
2022/01/10 07:19:23;;;;;;;15.85;9.58;;;;;;;1.53;65.37;100172.05;1677255;83;21718;-73
2022/01/10 07:21:49;;;;;;;16.85;9.68;;;;;;;1.47;65.75;100170.55;1676578;83;21074;-75
2022/01/10 07:24:16;;;;;;;13.58;9.08;;;;;;;1.41;66.07;100162.21;1709593;81;21694;-70
2022/01/10 07:26:44;;;;;;;14.25;8.55;;;;;;;1.48;66.34;100167.53;1711354;81;21090;-79
2022/01/10 07:29:11;;;;;;;17.23;9.38;;;;;;;1.55;66.34;100165.50;1711008;81;21161;-73
2022/01/10 07:31:39;;;;;;;15.48;9.70;;;;;;;1.59;66.13;100167.02;1708696;81;21067;-77
2022/01/10 07:34:06;;;;;;;19.07;9.45;;;;;;;1.61;66.16;100164.72;1687593;82;21182;-77
2022/01/10 07:36:32;;;;;;;17.70;9.78;;;;;;;1.66;66.03;100167.97;1700188;82;22289;-77
2022/01/10 07:38:58;;;;;;;20.55;10.93;;;;;;;1.66;65.97;100157.60;1683265;82;21054;-74
2022/01/10 07:41:25;;;;;;;19.30;9.98;;;;;;;1.66;65.73;100170.56;1669676;83;21161;-79
2022/01/10 07:43:51;;;;;;;18.60;10.03;;;;;;;1.60;65.83;100176.50;1686366;82;21082;-78
2022/01/10 07:46:18;;;;;;;14.60;8.68;;;;;;;1.56;65.93;100179.66;1674565;83;21883;-82
2022/01/10 07:48:44;;;;;;;19.65;10.05;;;;;;;1.56;66.16;100183.55;1676384;83;21074;-80
2022/01/10 07:51:11;;;;;;;16.80;10.30;;;;;;;1.61;66.15;100189.36;1666363;84;21583;-69
2022/01/10 07:53:38;;;;;;;19.45;10.40;;;;;;;1.66;66.12;100190.02;1665477;83;21111;-74
2022/01/10 07:56:05;;;;;;;14.38;8.68;;;;;;;1.71;65.84;100194.14;1658008;83;21149;-77
2022/01/10 07:58:33;;;;;;;16.93;9.28;;;;;;;1.69;65.63;100201.16;1646043;83;21079;-70
2022/01/10 08:01:00;;;;;;;16.50;10.35;;;;;;;1.64;65.59;100198.77;1697347;82;21632;-70
2022/01/10 08:03:26;;;;;;;19.45;10.98;;;;;;;1.65;65.92;100202.59;1698672;82;21154;-76
2022/01/10 08:05:53;;;;;;;20.70;10.93;;;;;;;1.71;65.83;100210.54;1670930;83;21130;-74
2022/01/10 08:08:19;;;;;;;16.50;11.00;;;;;;;1.78;65.79;100217.14;1665106;84;21519;-62
2022/01/10 08:10:46;;;;;;;17.90;11.35;;;;;;;1.85;65.57;100214.64;1665020;84;21096;-63
2022/01/10 08:13:12;;;;;;;14.65;9.28;;;;;;;1.89;65.14;100214.51;1635306;84;21098;-63
2022/01/10 08:15:38;;;;;;;15.15;9.40;;;;;;;1.92;65.04;100216.97;1705612;82;21696;-62
2022/01/10 08:18:06;;;;;;;17.05;10.18;;;;;;;1.91;64.65;100217.40;1681337;83;21095;-63
2022/01/10 08:20:33;;;;;;;14.83;9.40;;;;;;;1.91;64.45;100220.46;1635164;83;21130;-60
2022/01/10 08:23:00;;;;;;;17.27;9.73;;;;;;;1.89;64.45;100227.02;1671407;83;21886;-65
2022/01/10 08:25:26;;;;;;;20.05;10.78;;;;;;;1.89;64.49;100233.97;1666541;83;21142;-63
2022/01/10 08:27:52;;;;;;;14.90;9.38;;;;;;;1.87;64.54;100235.33;1662728;83;21637;-62
2022/01/10 08:31:37;;;;;;;14.03;9.33;;;;;;;1.77;65.08;100225.83;1860283;75;22647;-64
2022/01/10 08:34:04;;;;;;;16.40;10.38;;;;;;;1.77;65.08;100225.83;1822512;77;21046;-62
2022/01/10 08:36:32;;;;;;;17.82;9.75;;;;;;;1.76;64.82;100225.43;1719077;78;21120;-62
2022/01/10 08:39:01;;;;;;;15.08;10.00;;;;;;;1.82;64.73;100221.73;1767746;79;21118;-61
2022/01/10 08:41:28;;;;;;;16.20;9.93;;;;;;;1.82;64.74;100225.16;1763783;79;22405;-60
2022/01/10 08:43:54;;;;;;;17.20;9.48;;;;;;;1.86;64.70;100225.86;1770718;79;21177;-62
2022/01/10 08:46:21;;;;;;;15.13;8.98;;;;;;;1.90;64.44;100221.36;1749127;80;21033;-61
2022/01/10 08:48:49;;;;;;;16.48;9.70;;;;;;;1.89;64.08;100229.61;1767684;80;21047;-61
2022/01/10 08:51:16;;;;;;;21.90;9.35;;;;;;;1.84;63.98;100234.17;1738870;80;20971;-61
2022/01/10 08:53:43;;;;;;;14.07;8.60;;;;;;;1.82;64.01;100236.00;1720585;80;21119;-63
2022/01/10 08:56:09;;;;;;;15.18;9.30;;;;;;;1.80;63.85;100236.07;1761425;80;21118;-61
2022/01/10 08:58:36;;;;;;;15.45;7.95;;;;;;;1.84;63.75;100240.20;1748537;80;21056;-62
2022/01/10 09:01:06;;;;;;;12.40;7.75;;;;;;;1.84;63.28;100244.55;1750856;80;21116;-63
2022/01/10 09:03:33;;;;;;;17.48;8.68;;;;;;;1.78;62.86;100241.80;1771523;79;21121;-63
2022/01/10 09:06:00;;;;;;;17.00;8.73;;;;;;;1.66;62.73;100244.49;1765183;79;21161;-63
2022/01/10 09:08:32;;;;;;;15.70;8.50;;;;;;;1.61;63.00;100243.83;1754460;80;22369;-61
2022/01/10 09:10:58;;;;;;;10.80;6.67;;;;;;;1.60;63.25;100251.24;1761564;80;21078;-62
2022/01/10 09:13:25;;;;;;;13.88;7.50;;;;;;;1.62;62.57;100245.98;1758485;80;22006;-62
2022/01/10 09:15:52;;;;;;;13.62;7.25;;;;;;;1.58;62.41;100255.66;1755504;80;22468;-62
2022/01/10 09:18:20;;;;;;;11.25;6.62;;;;;;;1.54;62.03;100252.80;1765900;79;21054;-68
2022/01/10 09:20:46;;;;;;;13.20;6.95;;;;;;;1.47;62.06;100262.61;1763259;79;21168;-69
2022/01/10 09:23:13;;;;;;;12.90;7.28;;;;;;;1.48;61.94;100259.11;1764743;79;21587;-60
2022/01/10 09:25:40;;;;;;;14.18;7.85;;;;;;;1.43;62.24;100260.20;1768631;79;21131;-60
2022/01/10 09:28:06;;;;;;;13.32;8.28;;;;;;;1.41;62.42;100258.14;1772186;79;22381;-62
2022/01/10 09:30:33;;;;;;;13.10;7.58;;;;;;;1.32;62.41;100260.69;1772126;78;21097;-61
2022/01/10 09:33:00;;;;;;;16.12;8.05;;;;;;;1.26;62.63;100260.52;1757944;79;21430;-62
2022/01/10 09:35:26;;;;;;;14.00;8.38;;;;;;;1.23;62.93;100258.52;1783014;78;21132;-62
2022/01/10 09:37:53;;;;;;;14.13;8.25;;;;;;;1.22;62.67;100262.00;1759401;79;23306;-61
2022/01/10 09:40:19;;;;;;;17.50;8.95;;;;;;;1.18;62.72;100275.55;1780026;78;21229;-69
2022/01/10 09:42:46;;;;;;;11.93;7.80;;;;;;;1.20;62.92;100266.42;1783029;78;21518;-67
2022/01/10 09:45:13;;;;;;;13.25;8.40;;;;;;;1.19;63.21;100271.20;1724594;81;21056;-70
2022/01/10 09:47:40;;;;;;;14.58;8.23;;;;;;;1.25;63.17;100269.66;1757770;80;21205;-74
2022/01/10 09:50:08;;;;;;;16.17;8.73;;;;;;;1.25;63.22;100271.78;1729054;80;22123;-68
2022/01/10 09:52:38;;;;;;;15.80;9.08;;;;;;;1.34;63.31;100276.18;1782003;78;21504;-65
2022/01/10 09:55:05;;;;;;;15.98;8.70;;;;;;;1.33;63.02;100277.08;1781924;78;21525;-66
2022/01/10 09:57:32;;;;;;;12.90;8.28;;;;;;;1.30;63.10;100281.49;1754190;80;21127;-66
2022/01/10 09:59:58;;;;;;;12.50;8.05;;;;;;;1.29;63.07;100282.85;1763269;80;21164;-65
2022/01/10 10:02:32;;;;;;;13.83;8.10;;;;;;;1.30;62.90;100281.49;1770959;79;21561;-66
2022/01/10 10:05:01;;;;;;;14.40;8.18;;;;;;;1.25;62.15;100282.61;1757041;80;21688;-65
2022/01/10 10:07:27;;;;;;;13.98;7.33;;;;;;;1.22;61.95;100291.81;1783624;78;21070;-67
2022/01/10 10:09:57;;;;;;;11.78;6.90;;;;;;;1.18;62.19;100293.70;1784242;78;21388;-68
2022/01/10 10:12:27;;;;;;;15.53;8.20;;;;;;;1.20;62.10;100289.28;1782974;78;21050;-67
2022/01/10 10:14:54;;;;;;;14.95;8.05;;;;;;;1.21;62.23;100296.59;1711399;80;21037;-66
2022/01/10 10:17:22;;;;;;;14.85;8.35;;;;;;;1.18;61.56;100296.72;1753845;80;21092;-69
2022/01/10 10:19:48;;;;;;;12.90;8.35;;;;;;;1.09;62.11;100296.23;1765660;80;21058;-67
2022/01/10 10:22:15;;;;;;;13.53;7.92;;;;;;;1.09;62.38;100297.95;1733704;80;21022;-69
2022/01/10 10:24:47;;;;;;;15.08;8.25;;;;;;;1.08;62.74;100300.17;1778444;78;21120;-69
2022/01/10 10:27:17;;;;;;;15.32;10.03;;;;;;;1.09;62.43;100297.52;1752909;78;22621;-69
2022/01/10 10:29:46;;;;;;;15.93;8.85;;;;;;;1.03;62.71;100296.94;1727815;79;21115;-67
2022/01/10 10:32:15;;;;;;;14.73;8.45;;;;;;;0.99;62.82;100295.36;1731194;79;21085;-70
2022/01/10 10:34:41;;;;;;;17.40;9.28;;;;;;;0.92;62.82;100310.32;1766030;79;21073;-69
2022/01/10 10:37:12;;;;;;;15.88;8.83;;;;;;;0.83;63.26;100303.78;1726744;80;21390;-70
2022/01/10 10:39:41;;;;;;;13.25;8.08;;;;;;;0.78;63.46;100307.47;1787069;78;21123;-72
2022/01/10 10:42:16;;;;;;;16.12;8.88;;;;;;;0.74;63.49;100317.12;1770187;80;21453;-67
2022/01/10 10:44:43;;;;;;;13.62;8.23;;;;;;;0.69;63.56;100312.11;1749048;80;20990;-69
2022/01/10 10:47:12;;;;;;;15.53;8.50;;;;;;;0.69;63.66;100321.61;1763893;80;21159;-67
2022/01/10 10:49:44;;;;;;;20.25;10.32;;;;;;;0.71;63.67;100330.19;1762454;80;21129;-68
2022/01/10 10:52:09;;;;;;;14.73;9.08;;;;;;;0.67;63.57;100323.42;1769765;79;21513;-71
2022/01/10 10:54:36;;;;;;;15.43;9.00;;;;;;;0.63;63.42;100336.12;1745650;79;21730;-72
2022/01/10 10:57:05;;;;;;;16.57;8.78;;;;;;;0.57;63.48;100345.41;1749352;80;21096;-73
2022/01/10 10:59:36;;;;;;;15.30;8.85;;;;;;;0.52;63.69;100353.34;1767618;79;21421;-71
2022/01/10 11:02:02;;;;;;;12.45;8.25;;;;;;;0.47;63.59;100344.92;1766022;79;21505;-72
2022/01/10 11:04:30;;;;;;;16.05;9.33;;;;;;;0.42;63.62;100338.65;1765784;79;21109;-70
2022/01/10 11:06:58;;;;;;;14.78;8.58;;;;;;;0.36;63.49;100337.58;1766471;79;21011;-74
2022/01/10 11:09:25;;;;;;;17.25;8.98;;;;;;;0.34;63.47;100351.88;1739973;80;21101;-73
2022/01/10 11:11:51;;;;;;;13.08;8.55;;;;;;;0.36;63.66;100359.58;1747621;80;21033;-69
2022/01/10 11:14:22;;;;;;;15.65;9.13;;;;;;;0.36;63.72;100359.13;1749081;80;21083;-68
2022/01/10 11:16:49;;;;;;;13.88;8.13;;;;;;;0.35;63.56;100366.94;1734282;80;21473;-69
2022/01/10 11:19:22;;;;;;;18.98;9.03;;;;;;;0.28;64.11;100362.91;1723947;80;21117;-73
2022/01/10 11:22:03;;;;;;;15.60;9.08;;;;;;;0.28;64.11;100362.91;1766011;79;21090;-71
2022/01/10 11:24:49;;;;;;;13.98;7.80;;;;;;;0.30;63.84;100370.16;1767954;79;21561;-71
2022/01/10 11:27:31;;;;;;;14.00;8.68;;;;;;;0.31;63.94;100373.98;1750788;80;21054;-69
2022/01/10 11:29:57;;;;;;;15.43;8.68;;;;;;;0.32;64.11;100370.94;1750197;80;21100;-68
2022/01/10 11:33:03;;;;;;;14.47;8.05;;;;;;;0.33;63.90;100379.94;1785989;78;21432;-68
2022/01/10 11:35:37;;;;;;;15.90;9.33;;;;;;;0.33;63.80;100379.11;1765411;78;21085;-69